createdAt,value
2019-03-21T00:00:18.308Z,12.23
2019-03-21T00:02:50.195Z,12.21
2019-03-21T00:05:22.083Z,12.17
2019-03-21T00:07:53.848Z,12.16
2019-03-21T00:11:07.662Z,12.17
2019-03-21T00:13:39.435Z,12.16
2019-03-21T00:16:13.503Z,12.14
2019-03-21T00:18:45.252Z,12.12
2019-03-21T00:21:17.122Z,12.11
2019-03-21T00:23:48.828Z,12.07
2019-03-21T00:26:20.987Z,12.06
2019-03-21T00:28:52.651Z,12.04
2019-03-21T00:31:24.494Z,12.02
2019-03-21T00:33:56.326Z,12.02
2019-03-21T00:36:28.099Z,12.02
2019-03-21T00:38:59.849Z,12.04
2019-03-21T00:41:32.402Z,12.05
2019-03-21T00:44:04.140Z,12.07
2019-03-21T00:46:36.022Z,12.09
2019-03-21T00:49:07.713Z,12.10
2019-03-21T00:51:39.518Z,12.11
2019-03-21T00:54:11.280Z,12.10
2019-03-21T00:56:43.035Z,12.06
2019-03-21T00:59:14.777Z,12.01
2019-03-21T01:01:46.545Z,11.98
2019-03-21T01:04:18.537Z,11.93
2019-03-21T01:06:52.517Z,11.90
2019-03-21T01:09:25.952Z,11.89
2019-03-21T01:11:57.836Z,11.87
2019-03-21T01:14:30.243Z,11.85
2019-03-21T01:17:02.147Z,11.81
2019-03-21T01:19:33.980Z,11.80
2019-03-21T01:22:05.837Z,11.78
2019-03-21T01:24:37.623Z,11.79
2019-03-21T01:27:09.378Z,11.74
2019-03-21T01:29:41.157Z,11.69
2019-03-21T01:32:12.846Z,11.66
2019-03-21T01:34:44.610Z,11.63
2019-03-21T01:37:16.372Z,11.61
2019-03-21T01:39:48.077Z,11.58
2019-03-21T01:42:19.811Z,11.55
2019-03-21T01:44:51.609Z,11.52
2019-03-21T01:47:23.474Z,11.48
2019-03-21T01:49:55.252Z,11.44
2019-03-21T01:52:27.122Z,11.40
2019-03-21T01:54:58.875Z,11.38
2019-03-21T01:57:30.757Z,11.37
2019-03-21T02:00:02.733Z,11.36
2019-03-21T02:02:35.738Z,11.36
2019-03-21T02:05:08.274Z,11.34
2019-03-21T02:07:40.128Z,11.29
2019-03-21T02:10:13.825Z,11.29
2019-03-21T02:12:45.511Z,11.28
2019-03-21T02:15:17.235Z,11.29
2019-03-21T02:17:49.525Z,11.29
2019-03-21T02:20:21.320Z,11.29
2019-03-21T02:22:53.111Z,11.29
2019-03-21T02:25:26.972Z,11.31
2019-03-21T02:27:59.000Z,11.30
2019-03-21T02:30:32.811Z,11.32
2019-03-21T02:33:08.222Z,11.32
2019-03-21T02:35:40.009Z,11.32
2019-03-21T02:38:11.751Z,11.29
2019-03-21T02:40:43.617Z,11.26
2019-03-21T02:43:15.736Z,11.22
2019-03-21T02:45:47.534Z,11.20
2019-03-21T02:48:19.362Z,11.19
2019-03-21T02:50:51.066Z,11.18
2019-03-21T02:53:22.833Z,11.19
2019-03-21T02:55:54.659Z,11.18
2019-03-21T02:58:26.404Z,11.16
2019-03-21T03:00:58.126Z,11.14
2019-03-21T03:03:30.110Z,11.11
2019-03-21T03:06:01.841Z,11.09
2019-03-21T03:08:33.644Z,11.09
2019-03-21T03:11:05.842Z,11.12
2019-03-21T03:13:37.846Z,11.13
2019-03-21T03:16:09.592Z,11.15
2019-03-21T03:18:41.382Z,11.15
2019-03-21T03:21:13.124Z,11.18
2019-03-21T03:23:44.829Z,11.19
2019-03-21T03:26:16.538Z,11.22
2019-03-21T03:28:48.266Z,11.24
2019-03-21T03:31:19.973Z,11.27
2019-03-21T03:33:51.699Z,11.31
2019-03-21T03:36:23.383Z,11.32
2019-03-21T03:38:55.144Z,11.35
2019-03-21T03:41:27.929Z,11.37
2019-03-21T03:43:59.756Z,11.40
2019-03-21T03:46:32.500Z,11.42
2019-03-21T03:49:04.303Z,11.45
2019-03-21T03:51:36.109Z,11.45
2019-03-21T03:54:07.885Z,11.45
2019-03-21T03:56:39.641Z,11.47
2019-03-21T03:59:11.673Z,11.45
2019-03-21T04:01:43.515Z,11.45
2019-03-21T04:04:15.285Z,11.47
2019-03-21T04:06:47.082Z,11.46
2019-03-21T04:09:18.980Z,11.46
2019-03-21T04:11:50.740Z,11.44
2019-03-21T04:14:23.498Z,11.44
2019-03-21T04:16:55.300Z,11.43
2019-03-21T04:19:27.039Z,11.42
2019-03-21T04:21:58.802Z,11.42
2019-03-21T04:24:30.932Z,11.41
2019-03-21T04:27:02.702Z,11.42
2019-03-21T04:29:34.493Z,11.43
2019-03-21T04:32:06.302Z,11.44
2019-03-21T04:34:38.072Z,11.46
2019-03-21T04:37:09.828Z,11.47
2019-03-21T04:39:41.639Z,11.49
2019-03-21T04:42:13.336Z,11.51
2019-03-21T04:44:45.070Z,11.53
2019-03-21T04:47:16.882Z,11.54
2019-03-21T04:49:48.616Z,11.56
2019-03-21T04:52:20.407Z,11.59
2019-03-21T04:54:52.139Z,11.61
2019-03-21T04:57:24.808Z,11.64
2019-03-21T04:59:56.557Z,11.67
2019-03-21T05:02:28.384Z,11.71
2019-03-21T05:05:00.143Z,11.72
2019-03-21T05:07:31.901Z,11.73
2019-03-21T05:10:03.835Z,11.73
2019-03-21T05:12:35.569Z,11.73
2019-03-21T05:15:10.364Z,11.74
2019-03-21T05:17:42.160Z,11.71
2019-03-21T05:20:16.650Z,11.66
2019-03-21T05:22:48.502Z,11.61
2019-03-21T05:25:20.334Z,11.57
2019-03-21T05:27:52.085Z,11.54
2019-03-21T05:30:27.399Z,11.53
2019-03-21T05:32:59.277Z,11.55
2019-03-21T05:35:30.968Z,11.55
2019-03-21T05:38:02.718Z,11.56
2019-03-21T05:40:34.426Z,11.56
2019-03-21T05:43:09.440Z,11.55
2019-03-21T05:45:41.108Z,11.56
2019-03-21T05:48:12.877Z,11.58
2019-03-21T05:50:44.650Z,11.59
2019-03-21T05:53:16.392Z,11.58
2019-03-21T05:55:48.283Z,11.57
2019-03-21T05:58:20.047Z,11.56
2019-03-21T06:00:51.832Z,11.58
2019-03-21T06:03:26.930Z,11.57
2019-03-21T06:06:10.298Z,11.58
2019-03-21T06:08:42.263Z,11.61
2019-03-21T06:11:14.140Z,11.63
2019-03-21T06:13:45.910Z,11.62
2019-03-21T06:16:17.742Z,11.63
2019-03-21T06:19:03.659Z,11.61
2019-03-21T06:21:49.973Z,11.62
2019-03-21T06:24:36.756Z,11.62
2019-03-21T06:27:31.339Z,11.62
2019-03-21T06:30:03.164Z,11.59
2019-03-21T06:32:34.923Z,11.56
2019-03-21T06:35:20.454Z,11.55
2019-03-21T06:37:52.899Z,11.53
2019-03-21T06:40:24.670Z,11.53
2019-03-21T06:42:56.418Z,11.50
2019-03-21T06:45:28.186Z,11.49
2019-03-21T06:48:00.010Z,11.51
2019-03-21T06:50:31.823Z,11.51
2019-03-21T06:53:03.718Z,11.54
2019-03-21T06:55:35.558Z,11.56
2019-03-21T06:58:07.338Z,11.59
2019-03-21T07:00:39.143Z,11.61
2019-03-21T07:03:10.873Z,11.64
2019-03-21T07:05:42.749Z,11.63
2019-03-21T07:08:14.513Z,11.65
2019-03-21T07:10:46.569Z,11.67
2019-03-21T07:13:18.237Z,11.70
2019-03-21T07:15:49.971Z,11.71
2019-03-21T07:18:21.871Z,11.74
2019-03-21T07:20:53.624Z,11.74
2019-03-21T07:23:25.418Z,11.71
2019-03-21T07:25:57.159Z,11.65
2019-03-21T07:28:28.869Z,11.61
2019-03-21T07:31:00.652Z,11.62
2019-03-21T07:33:32.604Z,11.65
2019-03-21T07:36:05.374Z,11.65
2019-03-21T07:38:37.164Z,11.66
2019-03-21T07:41:09.042Z,11.68
2019-03-21T07:43:40.761Z,11.67
2019-03-21T07:46:12.629Z,11.66
2019-03-21T07:48:44.347Z,11.67
2019-03-21T07:51:16.185Z,11.68
2019-03-21T07:53:47.873Z,11.71
2019-03-21T07:56:19.622Z,11.75
2019-03-21T07:58:51.321Z,11.77
2019-03-21T08:01:23.146Z,11.81
2019-03-21T08:03:54.828Z,11.82
2019-03-21T08:06:26.583Z,11.85
2019-03-21T08:08:58.274Z,11.85
2019-03-21T08:11:30.023Z,11.87
2019-03-21T08:14:01.797Z,11.87
2019-03-21T08:16:33.632Z,11.91
2019-03-21T08:19:05.406Z,11.93
2019-03-21T08:21:37.177Z,11.94
2019-03-21T08:24:08.906Z,11.95
2019-03-21T08:26:40.696Z,11.97
2019-03-21T08:29:12.500Z,12.00
2019-03-21T08:31:44.260Z,12.00
2019-03-21T08:34:16.006Z,12.02
2019-03-21T08:36:47.801Z,12.05
2019-03-21T08:39:19.567Z,12.05
2019-03-21T08:41:51.429Z,12.07
2019-03-21T08:44:23.143Z,12.07
2019-03-21T08:46:54.866Z,12.08
2019-03-21T08:49:26.613Z,12.08
2019-03-21T08:51:58.422Z,12.09
2019-03-21T08:54:30.237Z,12.13
2019-03-21T08:57:02.045Z,12.16
2019-03-21T08:59:33.798Z,12.19
2019-03-21T09:02:05.565Z,12.24
2019-03-21T09:04:37.397Z,12.28
2019-03-21T09:07:09.221Z,12.32
2019-03-21T09:09:40.972Z,12.35
2019-03-21T09:12:12.748Z,12.36
2019-03-21T09:14:44.514Z,12.39
2019-03-21T09:17:16.376Z,12.44
2019-03-21T09:19:48.131Z,12.44
2019-03-21T09:22:19.907Z,12.43
2019-03-21T09:24:51.843Z,12.41
2019-03-21T09:27:23.585Z,12.41
2019-03-21T09:29:55.410Z,12.41
2019-03-21T09:32:27.248Z,12.41
2019-03-21T09:34:58.980Z,12.41
2019-03-21T09:37:30.769Z,12.39
2019-03-21T09:40:02.607Z,12.38
2019-03-21T09:42:34.409Z,12.35
2019-03-21T09:45:06.798Z,12.31
2019-03-21T09:47:38.499Z,12.28
2019-03-21T09:50:10.423Z,12.26
2019-03-21T09:52:43.122Z,12.27
2019-03-21T09:55:14.969Z,12.27
2019-03-21T09:57:46.707Z,12.27
2019-03-21T10:00:28.199Z,12.29
2019-03-21T10:02:59.953Z,12.31
2019-03-21T10:05:31.854Z,12.35
2019-03-21T10:08:04.085Z,12.38
2019-03-21T10:10:36.175Z,12.42
2019-03-21T10:13:08.211Z,12.45
2019-03-21T10:15:39.968Z,12.49
2019-03-21T10:18:11.732Z,12.55
2019-03-21T10:20:43.544Z,12.58
2019-03-21T10:23:15.440Z,12.61
2019-03-21T10:25:47.247Z,12.63
2019-03-21T10:28:19.121Z,12.66
2019-03-21T10:30:50.821Z,12.70
2019-03-21T10:33:22.781Z,12.74
2019-03-21T10:35:54.798Z,12.79
2019-03-21T10:38:26.598Z,12.86
2019-03-21T10:40:58.467Z,12.92
2019-03-21T10:43:30.270Z,12.96
2019-03-21T10:46:02.055Z,13.01
2019-03-21T10:48:33.983Z,13.06
2019-03-21T10:51:05.950Z,13.12
2019-03-21T10:53:37.874Z,13.22
2019-03-21T10:56:09.586Z,13.32
2019-03-21T10:58:41.490Z,13.40
2019-03-21T11:01:13.205Z,13.48
2019-03-21T11:03:44.991Z,13.48
2019-03-21T11:06:16.826Z,13.45
2019-03-21T11:08:48.665Z,13.45
2019-03-21T11:11:20.454Z,13.52
2019-03-21T11:13:52.269Z,13.56
2019-03-21T11:16:24.119Z,13.62
2019-03-21T11:18:55.863Z,13.67
2019-03-21T11:21:27.616Z,13.70
2019-03-21T11:23:59.349Z,13.74
2019-03-21T11:26:31.206Z,13.77
2019-03-21T11:29:03.035Z,13.83
2019-03-21T11:31:34.796Z,13.89
2019-03-21T11:34:06.658Z,13.97
2019-03-21T11:36:38.957Z,14.02
2019-03-21T11:39:10.742Z,14.10
2019-03-21T11:41:42.496Z,14.16
2019-03-21T11:44:14.635Z,14.20
2019-03-21T11:46:46.406Z,14.25
2019-03-21T11:49:18.255Z,14.32
2019-03-21T11:51:50.057Z,14.41
2019-03-21T11:54:21.898Z,14.52
2019-03-21T11:56:53.786Z,14.63
2019-03-21T11:59:36.944Z,14.74
2019-03-21T12:01:59.196Z,14.84
2019-03-21T12:04:31.072Z,14.93
2019-03-21T12:07:02.882Z,14.98
2019-03-21T12:09:34.731Z,15.04
2019-03-21T12:12:06.553Z,15.09
2019-03-21T12:14:38.646Z,15.15
2019-03-21T12:17:12.725Z,15.22
2019-03-21T12:19:43.986Z,15.30
2019-03-21T12:22:15.706Z,15.38
2019-03-21T12:24:47.546Z,15.47
2019-03-21T12:27:20.610Z,15.58
2019-03-21T12:29:52.369Z,15.69
2019-03-21T12:32:24.222Z,15.84
2019-03-21T12:34:56.030Z,15.98
2019-03-21T12:37:27.875Z,16.11
2019-03-21T12:39:59.617Z,16.24
2019-03-21T12:42:31.622Z,16.34
2019-03-21T12:45:03.451Z,16.44
2019-03-21T12:47:35.413Z,16.49
2019-03-21T12:50:08.624Z,16.58
2019-03-21T12:55:13.902Z,16.98
2019-03-21T12:57:45.739Z,17.27
2019-03-21T13:00:24.035Z,17.69
2019-03-21T13:02:55.739Z,18.23
2019-03-21T13:05:29.096Z,18.86
2019-03-21T13:07:13.116Z,16.77
2019-03-21T13:08:00.945Z,19.48
2019-03-21T13:10:32.684Z,20.10
2019-03-21T13:13:04.746Z,20.65
2019-03-21T13:15:36.792Z,21.12
2019-03-21T13:18:09.012Z,21.58
2019-03-21T13:20:40.802Z,22.07
2019-03-21T13:23:12.554Z,22.53
2019-03-21T13:25:44.280Z,23.01
2019-03-21T13:28:15.985Z,23.38
2019-03-21T13:30:47.716Z,23.62
2019-03-21T13:33:19.446Z,23.91
2019-03-21T13:35:51.186Z,24.33
2019-03-21T13:38:23.055Z,24.70
2019-03-21T13:40:54.707Z,25.05
2019-03-21T13:43:26.593Z,25.42
2019-03-21T13:45:58.524Z,25.86
2019-03-21T13:48:30.290Z,26.23
2019-03-21T13:51:02.033Z,26.59
2019-03-21T13:53:33.916Z,27.00
2019-03-21T13:56:05.962Z,27.45
2019-03-21T13:58:37.708Z,27.87
2019-03-21T14:01:09.435Z,28.21
2019-03-21T14:03:41.225Z,28.52
2019-03-21T14:06:13.055Z,28.83
2019-03-21T14:08:44.883Z,29.07
2019-03-21T14:11:19.202Z,29.32
2019-03-21T14:13:50.517Z,29.36
2019-03-21T14:16:23.210Z,29.35
2019-03-21T14:18:55.179Z,29.44
2019-03-21T14:21:26.964Z,29.59
2019-03-21T14:23:59.837Z,29.75
2019-03-21T14:26:31.673Z,29.63
2019-03-21T14:29:12.100Z,29.60
2019-03-21T14:31:36.901Z,29.56
2019-03-21T14:34:08.663Z,29.59
2019-03-21T14:36:41.859Z,29.56
2019-03-21T14:39:13.749Z,29.57
2019-03-21T14:41:45.615Z,29.63
2019-03-21T14:44:17.420Z,29.73
2019-03-21T14:46:49.237Z,29.82
2019-03-21T14:49:21.109Z,29.94
2019-03-21T14:51:52.921Z,29.97
2019-03-21T14:54:24.864Z,29.96
2019-03-21T14:56:56.814Z,29.94
2019-03-21T14:59:28.710Z,29.86
2019-03-21T15:02:00.592Z,29.73
2019-03-21T15:04:32.478Z,29.64
2019-03-21T15:07:04.299Z,29.54
2019-03-21T15:09:36.144Z,29.44
2019-03-21T15:12:07.870Z,29.23
2019-03-21T15:14:39.762Z,28.91
2019-03-21T15:17:11.557Z,28.76
2019-03-21T15:19:43.381Z,28.68
2019-03-21T15:22:15.111Z,28.56
2019-03-21T15:24:47.106Z,28.42
2019-03-21T15:27:18.869Z,28.29
2019-03-21T15:29:50.893Z,28.14
2019-03-21T15:32:22.533Z,27.94
2019-03-21T15:34:54.369Z,27.74
2019-03-21T15:37:26.035Z,27.55
2019-03-21T15:39:57.876Z,27.39
2019-03-21T15:42:29.558Z,27.25
2019-03-21T15:45:15.672Z,27.06
2019-03-21T15:47:36.019Z,26.85
2019-03-21T15:50:09.669Z,26.65
2019-03-21T15:52:41.525Z,26.48
2019-03-21T15:55:13.433Z,26.33
2019-03-21T15:57:45.261Z,26.18
2019-03-21T16:00:21.374Z,26.02
2019-03-21T16:02:53.198Z,25.83
2019-03-21T16:05:24.966Z,25.63
2019-03-21T16:07:56.987Z,25.43
2019-03-21T16:10:28.811Z,25.25
2019-03-21T16:13:00.502Z,25.11
2019-03-21T16:15:32.807Z,24.98
2019-03-21T16:18:05.210Z,24.85
2019-03-21T16:20:37.098Z,24.68
2019-03-21T16:23:08.965Z,24.51
2019-03-21T16:25:40.765Z,24.33
2019-03-21T16:28:12.671Z,24.15
2019-03-21T16:30:44.477Z,23.96
2019-03-21T16:33:16.314Z,23.76
2019-03-21T16:35:48.103Z,23.54
2019-03-21T16:38:19.985Z,23.32
2019-03-21T16:40:51.829Z,23.11
2019-03-21T16:43:23.638Z,22.91
2019-03-21T16:45:55.426Z,22.72
2019-03-21T16:48:27.359Z,22.52
2019-03-21T16:50:59.157Z,22.32
2019-03-21T16:53:30.988Z,22.13
2019-03-21T16:56:02.904Z,21.95
2019-03-21T16:58:34.701Z,21.76
2019-03-21T17:01:06.610Z,21.57
2019-03-21T17:03:38.638Z,21.40
2019-03-21T17:06:11.417Z,21.23
2019-03-21T17:08:43.271Z,21.06
2019-03-21T17:11:15.122Z,20.90
2019-03-21T17:13:47.222Z,20.74
2019-03-21T17:16:20.055Z,20.60
2019-03-21T17:18:51.938Z,20.47
2019-03-21T17:21:23.977Z,20.34
2019-03-21T17:23:55.873Z,20.20
2019-03-21T17:26:27.642Z,20.07
2019-03-21T17:29:00.445Z,19.94
2019-03-21T17:31:32.286Z,19.82
2019-03-21T17:34:04.346Z,19.69
2019-03-21T17:36:36.083Z,19.56
2019-03-21T17:39:09.399Z,19.43
2019-03-21T17:41:43.342Z,19.30
2019-03-21T17:44:14.981Z,19.17
2019-03-21T17:46:46.949Z,19.03
2019-03-21T17:49:18.778Z,18.92
2019-03-21T17:51:50.693Z,18.81
2019-03-21T17:54:22.402Z,18.71
2019-03-21T17:56:54.404Z,18.61
2019-03-21T17:59:26.309Z,18.51
2019-03-21T18:01:58.309Z,18.41
2019-03-21T18:04:30.241Z,18.31
2019-03-21T18:07:02.118Z,18.23
2019-03-21T18:09:33.984Z,18.13
2019-03-21T18:12:05.881Z,18.04
2019-03-21T18:14:37.678Z,17.95
2019-03-21T18:17:09.400Z,17.87
2019-03-21T18:19:41.147Z,17.78
2019-03-21T18:22:12.957Z,17.69
2019-03-21T18:24:53.802Z,17.62
2019-03-21T18:27:18.235Z,17.56
2019-03-21T18:29:50.002Z,17.47
2019-03-21T18:32:21.895Z,17.38
2019-03-21T18:34:55.227Z,17.31
2019-03-21T18:37:27.675Z,17.23
2019-03-21T18:40:00.967Z,17.17
2019-03-21T18:42:33.478Z,17.09
2019-03-21T18:45:06.299Z,17.01
2019-03-21T18:47:38.131Z,16.95
2019-03-21T18:50:10.263Z,16.87
2019-03-21T18:52:42.614Z,16.81
2019-03-21T18:55:14.749Z,16.74
2019-03-21T18:57:46.579Z,16.68
2019-03-21T19:00:18.540Z,16.63
2019-03-21T19:02:50.736Z,16.57
2019-03-21T19:05:22.544Z,16.52
2019-03-21T19:07:55.135Z,16.45
2019-03-21T19:10:27.936Z,16.41
2019-03-21T19:12:59.776Z,16.35
2019-03-21T19:15:31.542Z,16.28
2019-03-21T19:18:03.382Z,16.23
2019-03-21T19:20:35.254Z,16.15
2019-03-21T19:23:08.302Z,16.10
2019-03-21T19:25:41.009Z,16.03
2019-03-21T19:28:13.216Z,15.97
2019-03-21T19:30:47.678Z,15.93
2019-03-21T19:33:21.258Z,15.87
2019-03-21T19:35:54.807Z,15.82
2019-03-21T19:38:27.692Z,15.78
2019-03-21T19:40:59.726Z,15.71
2019-03-21T19:43:31.576Z,15.66
2019-03-21T19:46:04.833Z,15.60
2019-03-21T19:48:45.688Z,15.56
2019-03-21T19:51:11.568Z,15.51
2019-03-21T19:53:44.157Z,15.45
2019-03-21T19:56:16.082Z,15.42
2019-03-21T19:58:47.764Z,15.36
2019-03-21T20:01:19.757Z,15.32
2019-03-21T20:03:52.017Z,15.29
2019-03-21T20:06:23.930Z,15.23
2019-03-21T20:08:57.011Z,15.21
2019-03-21T20:11:29.057Z,15.15
2019-03-21T20:14:03.750Z,15.13
2019-03-21T20:16:34.510Z,15.09
2019-03-21T20:19:06.364Z,15.05
2019-03-21T20:21:47.336Z,15.00
2019-03-21T20:24:12.991Z,14.96
2019-03-21T20:26:46.559Z,14.92
2019-03-21T20:29:18.687Z,14.89
2019-03-21T20:31:50.519Z,14.84
2019-03-21T20:34:22.352Z,14.79
2019-03-21T20:36:54.258Z,14.75
2019-03-21T20:39:26.235Z,14.71
2019-03-21T20:41:58.088Z,14.65
2019-03-21T20:44:29.874Z,14.62
2019-03-21T20:47:01.578Z,14.58
2019-03-21T20:49:33.374Z,14.54
2019-03-21T20:52:06.096Z,14.49
2019-03-21T20:54:37.818Z,14.45
2019-03-21T20:57:09.707Z,14.42
2019-03-21T20:59:41.530Z,14.38
2019-03-21T21:02:13.429Z,14.34
2019-03-21T21:04:45.189Z,14.29
2019-03-21T21:07:18.023Z,14.25
2019-03-21T21:09:52.716Z,14.20
2019-03-21T21:12:24.805Z,14.15
2019-03-21T21:14:56.627Z,14.11
2019-03-21T21:17:28.443Z,14.08
2019-03-21T21:20:00.420Z,14.04
2019-03-21T21:22:32.266Z,14.00
2019-03-21T21:25:04.535Z,13.96
2019-03-21T21:27:48.175Z,13.92
2019-03-21T21:30:11.313Z,13.88
2019-03-21T21:32:43.208Z,13.83
2019-03-21T21:35:15.300Z,13.79
2019-03-21T21:37:47.274Z,13.76
2019-03-21T21:40:19.434Z,13.71
2019-03-21T21:42:52.320Z,13.68
2019-03-21T21:45:24.227Z,13.64
2019-03-21T21:47:56.636Z,13.59
2019-03-21T21:50:28.490Z,13.55
2019-03-21T21:53:00.348Z,13.52
2019-03-21T21:55:32.248Z,13.47
2019-03-21T21:58:04.066Z,13.43
2019-03-21T22:00:35.965Z,13.38
2019-03-21T22:03:07.679Z,13.35
